sensor_id;sensor_type;location;lat;lon;timestamp;temperature;humidity
18733;DHT22;9495;51.210;2.934;2022-07-23T00:01:56;18.60;99.90
18733;DHT22;9495;51.210;2.934;2022-07-23T00:04:24;18.60;99.90
18733;DHT22;9495;51.210;2.934;2022-07-23T00:06:53;18.50;99.90
18733;DHT22;9495;51.210;2.934;2022-07-23T00:09:22;18.60;99.90
18733;DHT22;9495;51.210;2.934;2022-07-23T00:11:51;18.50;99.90
18733;DHT22;9495;51.210;2.934;2022-07-23T00:14:19;18.50;99.90
18733;DHT22;9495;51.210;2.934;2022-07-23T00:16:47;18.50;99.90
18733;DHT22;9495;51.210;2.934;2022-07-23T00:19:16;18.50;99.90
18733;DHT22;9495;51.210;2.934;2022-07-23T00:21:44;18.30;99.90
18733;DHT22;9495;51.210;2.934;2022-07-23T00:24:13;18.30;99.90
18733;DHT22;9495;51.210;2.934;2022-07-23T00:26:42;18.30;99.90
18733;DHT22;9495;51.210;2.934;2022-07-23T00:29:10;18.40;99.90
18733;DHT22;9495;51.210;2.934;2022-07-23T00:31:39;18.40;99.90
18733;DHT22;9495;51.210;2.934;2022-07-23T00:34:08;18.30;99.90
18733;DHT22;9495;51.210;2.934;2022-07-23T00:36:36;18.30;99.90
18733;DHT22;9495;51.210;2.934;2022-07-23T00:39:05;18.30;99.90
18733;DHT22;9495;51.210;2.934;2022-07-23T00:41:33;18.30;99.90
18733;DHT22;9495;51.210;2.934;2022-07-23T00:44:23;18.30;99.90
18733;DHT22;9495;51.210;2.934;2022-07-23T00:46:53;18.30;99.90
18733;DHT22;9495;51.210;2.934;2022-07-23T00:49:21;18.20;99.90
18733;DHT22;9495;51.210;2.934;2022-07-23T00:51:50;18.20;99.90
18733;DHT22;9495;51.210;2.934;2022-07-23T00:54:19;18.20;99.90
18733;DHT22;9495;51.210;2.934;2022-07-23T00:56:48;18.10;99.90
18733;DHT22;9495;51.210;2.934;2022-07-23T00:59:16;18.10;99.90
18733;DHT22;9495;51.210;2.934;2022-07-23T01:01:46;18.00;99.90
18733;DHT22;9495;51.210;2.934;2022-07-23T01:04:16;18.10;99.90
18733;DHT22;9495;51.210;2.934;2022-07-23T01:06:46;18.10;99.90
18733;DHT22;9495;51.210;2.934;2022-07-23T01:09:14;18.10;99.90
18733;DHT22;9495;51.210;2.934;2022-07-23T01:11:43;18.10;99.90
18733;DHT22;9495;51.210;2.934;2022-07-23T01:14:12;18.00;99.90
18733;DHT22;9495;51.210;2.934;2022-07-23T01:16:42;18.00;99.90
18733;DHT22;9495;51.210;2.934;2022-07-23T01:19:13;18.00;99.90
18733;DHT22;9495;51.210;2.934;2022-07-23T01:21:42;18.00;99.90
18733;DHT22;9495;51.210;2.934;2022-07-23T01:24:13;18.00;99.90
18733;DHT22;9495;51.210;2.934;2022-07-23T01:26:44;17.90;99.90
18733;DHT22;9495;51.210;2.934;2022-07-23T01:29:13;17.90;99.90
18733;DHT22;9495;51.210;2.934;2022-07-23T01:31:41;17.90;99.90
18733;DHT22;9495;51.210;2.934;2022-07-23T01:34:11;17.90;99.90
18733;DHT22;9495;51.210;2.934;2022-07-23T01:36:39;17.90;99.90
18733;DHT22;9495;51.210;2.934;2022-07-23T01:39:08;17.80;99.90
18733;DHT22;9495;51.210;2.934;2022-07-23T01:41:38;17.90;99.90
18733;DHT22;9495;51.210;2.934;2022-07-23T01:44:09;17.90;99.90
18733;DHT22;9495;51.210;2.934;2022-07-23T01:46:38;17.90;99.90
18733;DHT22;9495;51.210;2.934;2022-07-23T01:49:06;17.90;99.90
18733;DHT22;9495;51.210;2.934;2022-07-23T01:51:35;17.80;99.90
18733;DHT22;9495;51.210;2.934;2022-07-23T01:54:03;17.80;99.90
18733;DHT22;9495;51.210;2.934;2022-07-23T01:56:32;17.70;99.90
18733;DHT22;9495;51.210;2.934;2022-07-23T01:59:01;17.70;99.90
18733;DHT22;9495;51.210;2.934;2022-07-23T02:01:30;17.80;99.90
18733;DHT22;9495;51.210;2.934;2022-07-23T02:03:58;17.70;99.90
18733;DHT22;9495;51.210;2.934;2022-07-23T02:06:27;17.70;99.90
18733;DHT22;9495;51.210;2.934;2022-07-23T02:08:55;17.70;99.90
18733;DHT22;9495;51.210;2.934;2022-07-23T02:11:24;17.70;99.90
18733;DHT22;9495;51.210;2.934;2022-07-23T02:13:52;17.80;99.90
18733;DHT22;9495;51.210;2.934;2022-07-23T02:16:22;17.70;99.90
18733;DHT22;9495;51.210;2.934;2022-07-23T02:18:51;17.60;99.90
18733;DHT22;9495;51.210;2.934;2022-07-23T02:21:19;17.60;99.90
18733;DHT22;9495;51.210;2.934;2022-07-23T02:23:48;17.60;99.90
18733;DHT22;9495;51.210;2.934;2022-07-23T02:26:16;17.50;99.90
18733;DHT22;9495;51.210;2.934;2022-07-23T02:28:46;17.40;99.90
18733;DHT22;9495;51.210;2.934;2022-07-23T02:31:15;17.40;99.90
18733;DHT22;9495;51.210;2.934;2022-07-23T02:33:45;17.40;99.90
18733;DHT22;9495;51.210;2.934;2022-07-23T02:36:13;17.40;99.90
18733;DHT22;9495;51.210;2.934;2022-07-23T02:38:42;17.40;99.90
18733;DHT22;9495;51.210;2.934;2022-07-23T02:41:10;17.40;99.90
18733;DHT22;9495;51.210;2.934;2022-07-23T02:43:38;17.50;99.90
18733;DHT22;9495;51.210;2.934;2022-07-23T02:46:07;17.50;99.90
18733;DHT22;9495;51.210;2.934;2022-07-23T02:48:35;17.50;99.90
18733;DHT22;9495;51.210;2.934;2022-07-23T02:51:05;17.50;99.90
18733;DHT22;9495;51.210;2.934;2022-07-23T02:53:40;17.50;99.90
18733;DHT22;9495;51.210;2.934;2022-07-23T02:56:09;17.50;99.90
18733;DHT22;9495;51.210;2.934;2022-07-23T02:58:38;17.50;99.90
18733;DHT22;9495;51.210;2.934;2022-07-23T03:01:06;17.60;99.90
18733;DHT22;9495;51.210;2.934;2022-07-23T03:03:34;17.60;99.90
18733;DHT22;9495;51.210;2.934;2022-07-23T03:06:04;17.50;99.90
18733;DHT22;9495;51.210;2.934;2022-07-23T03:08:33;17.50;99.90
18733;DHT22;9495;51.210;2.934;2022-07-23T03:11:01;17.50;99.90
18733;DHT22;9495;51.210;2.934;2022-07-23T03:13:29;17.50;99.90
18733;DHT22;9495;51.210;2.934;2022-07-23T03:16:01;17.40;99.90
18733;DHT22;9495;51.210;2.934;2022-07-23T03:18:30;17.50;99.90
18733;DHT22;9495;51.210;2.934;2022-07-23T03:21:07;17.40;99.90
18733;DHT22;9495;51.210;2.934;2022-07-23T03:23:36;17.40;99.90
18733;DHT22;9495;51.210;2.934;2022-07-23T03:26:04;17.40;99.90
18733;DHT22;9495;51.210;2.934;2022-07-23T03:28:32;17.30;99.90
18733;DHT22;9495;51.210;2.934;2022-07-23T03:31:01;17.40;99.90
18733;DHT22;9495;51.210;2.934;2022-07-23T03:33:29;17.30;99.90
18733;DHT22;9495;51.210;2.934;2022-07-23T03:35:58;17.30;99.90
18733;DHT22;9495;51.210;2.934;2022-07-23T03:38:28;17.30;99.90
18733;DHT22;9495;51.210;2.934;2022-07-23T03:40:56;17.30;99.90
18733;DHT22;9495;51.210;2.934;2022-07-23T03:43:24;17.40;99.90
18733;DHT22;9495;51.210;2.934;2022-07-23T03:45:53;17.30;99.90
18733;DHT22;9495;51.210;2.934;2022-07-23T03:48:21;17.30;99.90
18733;DHT22;9495;51.210;2.934;2022-07-23T03:50:50;17.30;99.90
18733;DHT22;9495;51.210;2.934;2022-07-23T03:53:18;17.20;99.90
18733;DHT22;9495;51.210;2.934;2022-07-23T03:55:48;17.20;99.90
18733;DHT22;9495;51.210;2.934;2022-07-23T03:58:16;17.20;99.90
18733;DHT22;9495;51.210;2.934;2022-07-23T04:00:45;17.20;99.90
18733;DHT22;9495;51.210;2.934;2022-07-23T04:03:13;17.20;99.90
18733;DHT22;9495;51.210;2.934;2022-07-23T04:05:41;17.20;99.90
18733;DHT22;9495;51.210;2.934;2022-07-23T04:08:10;17.20;99.90
18733;DHT22;9495;51.210;2.934;2022-07-23T04:10:38;17.10;99.90
18733;DHT22;9495;51.210;2.934;2022-07-23T04:13:08;17.20;99.90
18733;DHT22;9495;51.210;2.934;2022-07-23T04:15:36;17.20;99.90
18733;DHT22;9495;51.210;2.934;2022-07-23T04:18:06;17.20;99.90
18733;DHT22;9495;51.210;2.934;2022-07-23T04:20:34;17.20;99.90
18733;DHT22;9495;51.210;2.934;2022-07-23T04:23:07;17.20;99.90
18733;DHT22;9495;51.210;2.934;2022-07-23T04:25:36;17.20;99.90
18733;DHT22;9495;51.210;2.934;2022-07-23T04:28:05;17.20;99.90
18733;DHT22;9495;51.210;2.934;2022-07-23T04:30:34;17.20;99.90
18733;DHT22;9495;51.210;2.934;2022-07-23T04:33:03;17.20;99.90
18733;DHT22;9495;51.210;2.934;2022-07-23T04:35:34;17.20;99.90
18733;DHT22;9495;51.210;2.934;2022-07-23T04:38:03;17.10;99.90
18733;DHT22;9495;51.210;2.934;2022-07-23T04:40:32;17.10;99.90
18733;DHT22;9495;51.210;2.934;2022-07-23T04:43:00;17.20;99.90
18733;DHT22;9495;51.210;2.934;2022-07-23T04:45:29;17.10;99.90
18733;DHT22;9495;51.210;2.934;2022-07-23T04:47:59;17.10;99.90
18733;DHT22;9495;51.210;2.934;2022-07-23T04:50:27;17.20;99.90
18733;DHT22;9495;51.210;2.934;2022-07-23T04:52:56;17.20;99.90
18733;DHT22;9495;51.210;2.934;2022-07-23T04:55:24;17.10;99.90
18733;DHT22;9495;51.210;2.934;2022-07-23T04:57:53;17.20;99.90
18733;DHT22;9495;51.210;2.934;2022-07-23T05:00:21;17.20;99.90
18733;DHT22;9495;51.210;2.934;2022-07-23T05:02:50;17.10;99.90
18733;DHT22;9495;51.210;2.934;2022-07-23T05:05:20;17.20;99.90
18733;DHT22;9495;51.210;2.934;2022-07-23T05:07:48;17.20;99.90
18733;DHT22;9495;51.210;2.934;2022-07-23T05:10:17;17.20;99.90
18733;DHT22;9495;51.210;2.934;2022-07-23T05:12:45;17.30;99.90
18733;DHT22;9495;51.210;2.934;2022-07-23T05:15:14;17.40;99.90
18733;DHT22;9495;51.210;2.934;2022-07-23T05:17:42;17.40;99.90
18733;DHT22;9495;51.210;2.934;2022-07-23T05:20:11;17.40;99.90
18733;DHT22;9495;51.210;2.934;2022-07-23T05:22:41;17.30;99.90
18733;DHT22;9495;51.210;2.934;2022-07-23T05:25:10;17.40;99.90
18733;DHT22;9495;51.210;2.934;2022-07-23T05:27:38;17.40;99.90
18733;DHT22;9495;51.210;2.934;2022-07-23T05:30:07;17.40;99.90
18733;DHT22;9495;51.210;2.934;2022-07-23T05:32:36;17.40;99.90
18733;DHT22;9495;51.210;2.934;2022-07-23T05:35:05;17.50;99.90
18733;DHT22;9495;51.210;2.934;2022-07-23T05:37:34;17.50;99.90
18733;DHT22;9495;51.210;2.934;2022-07-23T05:40:06;17.60;99.90
18733;DHT22;9495;51.210;2.934;2022-07-23T05:42:35;17.50;99.90
18733;DHT22;9495;51.210;2.934;2022-07-23T05:45:04;17.60;99.90
18733;DHT22;9495;51.210;2.934;2022-07-23T05:47:40;17.60;99.90
18733;DHT22;9495;51.210;2.934;2022-07-23T05:50:09;17.60;99.90
18733;DHT22;9495;51.210;2.934;2022-07-23T05:52:37;17.60;99.90
18733;DHT22;9495;51.210;2.934;2022-07-23T05:55:09;17.60;99.90
18733;DHT22;9495;51.210;2.934;2022-07-23T05:57:37;17.60;99.90
18733;DHT22;9495;51.210;2.934;2022-07-23T06:00:08;17.70;99.90
18733;DHT22;9495;51.210;2.934;2022-07-23T06:02:37;17.80;99.90
18733;DHT22;9495;51.210;2.934;2022-07-23T06:05:06;17.80;99.90
18733;DHT22;9495;51.210;2.934;2022-07-23T06:07:36;17.80;99.90
18733;DHT22;9495;51.210;2.934;2022-07-23T06:10:07;17.90;99.90
18733;DHT22;9495;51.210;2.934;2022-07-23T06:12:35;18.00;99.90
18733;DHT22;9495;51.210;2.934;2022-07-23T06:15:04;18.00;99.90
18733;DHT22;9495;51.210;2.934;2022-07-23T06:17:37;18.10;99.90
18733;DHT22;9495;51.210;2.934;2022-07-23T06:20:07;18.20;99.90
18733;DHT22;9495;51.210;2.934;2022-07-23T06:22:36;18.30;99.90
18733;DHT22;9495;51.210;2.934;2022-07-23T06:25:07;18.40;99.90
18733;DHT22;9495;51.210;2.934;2022-07-23T06:27:45;18.40;99.90
18733;DHT22;9495;51.210;2.934;2022-07-23T06:30:13;18.50;99.90
18733;DHT22;9495;51.210;2.934;2022-07-23T06:32:44;18.50;99.90
18733;DHT22;9495;51.210;2.934;2022-07-23T06:35:13;18.50;99.90
18733;DHT22;9495;51.210;2.934;2022-07-23T06:37:41;18.50;99.90
18733;DHT22;9495;51.210;2.934;2022-07-23T06:40:12;18.60;99.90
18733;DHT22;9495;51.210;2.934;2022-07-23T06:42:40;18.60;99.90
18733;DHT22;9495;51.210;2.934;2022-07-23T06:45:09;18.60;99.90
18733;DHT22;9495;51.210;2.934;2022-07-23T06:47:38;18.60;99.90
18733;DHT22;9495;51.210;2.934;2022-07-23T06:50:07;18.70;99.90
18733;DHT22;9495;51.210;2.934;2022-07-23T06:52:36;18.60;99.90
18733;DHT22;9495;51.210;2.934;2022-07-23T06:55:09;18.70;99.90
18733;DHT22;9495;51.210;2.934;2022-07-23T06:57:38;18.80;99.90
18733;DHT22;9495;51.210;2.934;2022-07-23T07:00:07;19.10;99.90
18733;DHT22;9495;51.210;2.934;2022-07-23T07:02:36;19.20;99.90
18733;DHT22;9495;51.210;2.934;2022-07-23T07:05:05;19.10;99.90
18733;DHT22;9495;51.210;2.934;2022-07-23T07:07:33;19.50;99.90
18733;DHT22;9495;51.210;2.934;2022-07-23T07:10:03;19.30;99.90
18733;DHT22;9495;51.210;2.934;2022-07-23T07:12:31;19.20;99.90
18733;DHT22;9495;51.210;2.934;2022-07-23T07:15:01;19.20;99.90
18733;DHT22;9495;51.210;2.934;2022-07-23T07:17:30;19.20;99.90
18733;DHT22;9495;51.210;2.934;2022-07-23T07:19:58;19.30;99.90
18733;DHT22;9495;51.210;2.934;2022-07-23T07:22:26;20.00;99.90
18733;DHT22;9495;51.210;2.934;2022-07-23T07:24:55;20.60;99.90
18733;DHT22;9495;51.210;2.934;2022-07-23T07:27:23;20.80;99.90
18733;DHT22;9495;51.210;2.934;2022-07-23T07:29:52;21.10;99.90
18733;DHT22;9495;51.210;2.934;2022-07-23T07:32:21;21.40;99.90
18733;DHT22;9495;51.210;2.934;2022-07-23T07:35:10;21.30;99.90
18733;DHT22;9495;51.210;2.934;2022-07-23T07:37:38;21.30;99.90
18733;DHT22;9495;51.210;2.934;2022-07-23T07:40:08;21.70;99.90
18733;DHT22;9495;51.210;2.934;2022-07-23T07:42:44;21.90;99.90
18733;DHT22;9495;51.210;2.934;2022-07-23T07:45:12;21.90;99.90
18733;DHT22;9495;51.210;2.934;2022-07-23T07:47:43;22.00;99.90
18733;DHT22;9495;51.210;2.934;2022-07-23T07:50:11;22.00;99.90
18733;DHT22;9495;51.210;2.934;2022-07-23T07:52:40;22.10;99.90
18733;DHT22;9495;51.210;2.934;2022-07-23T07:55:10;22.20;99.90
18733;DHT22;9495;51.210;2.934;2022-07-23T07:57:39;22.20;99.90
18733;DHT22;9495;51.210;2.934;2022-07-23T08:00:15;22.30;99.90
18733;DHT22;9495;51.210;2.934;2022-07-23T08:02:46;22.40;99.90
18733;DHT22;9495;51.210;2.934;2022-07-23T08:05:19;22.40;99.90
18733;DHT22;9495;51.210;2.934;2022-07-23T08:07:54;22.50;99.90
18733;DHT22;9495;51.210;2.934;2022-07-23T08:10:23;22.50;99.90
18733;DHT22;9495;51.210;2.934;2022-07-23T08:12:53;22.50;99.90
18733;DHT22;9495;51.210;2.934;2022-07-23T08:15:24;22.50;99.90
18733;DHT22;9495;51.210;2.934;2022-07-23T08:17:54;22.50;99.90
18733;DHT22;9495;51.210;2.934;2022-07-23T08:20:24;22.60;99.90
18733;DHT22;9495;51.210;2.934;2022-07-23T08:22:56;22.60;99.90
18733;DHT22;9495;51.210;2.934;2022-07-23T08:25:26;22.60;99.90
18733;DHT22;9495;51.210;2.934;2022-07-23T08:27:56;22.60;99.90
18733;DHT22;9495;51.210;2.934;2022-07-23T08:30:25;22.10;99.90
18733;DHT22;9495;51.210;2.934;2022-07-23T08:32:57;22.40;99.90
18733;DHT22;9495;51.210;2.934;2022-07-23T08:35:30;22.50;99.90
18733;DHT22;9495;51.210;2.934;2022-07-23T08:37:59;22.30;99.90
18733;DHT22;9495;51.210;2.934;2022-07-23T08:40:30;22.60;99.90
18733;DHT22;9495;51.210;2.934;2022-07-23T08:42:58;22.20;99.90
18733;DHT22;9495;51.210;2.934;2022-07-23T08:45:27;22.40;99.90
18733;DHT22;9495;51.210;2.934;2022-07-23T08:47:58;22.60;99.90
18733;DHT22;9495;51.210;2.934;2022-07-23T08:50:31;22.80;99.90
18733;DHT22;9495;51.210;2.934;2022-07-23T08:53:05;22.80;99.90
18733;DHT22;9495;51.210;2.934;2022-07-23T08:55:34;22.60;99.90
18733;DHT22;9495;51.210;2.934;2022-07-23T08:58:03;22.60;99.90
18733;DHT22;9495;51.210;2.934;2022-07-23T09:00:31;22.70;99.90
18733;DHT22;9495;51.210;2.934;2022-07-23T09:03:01;22.20;99.90
18733;DHT22;9495;51.210;2.934;2022-07-23T09:05:29;22.60;99.90
18733;DHT22;9495;51.210;2.934;2022-07-23T09:08:09;22.80;99.90
18733;DHT22;9495;51.210;2.934;2022-07-23T09:10:49;22.80;99.90
18733;DHT22;9495;51.210;2.934;2022-07-23T09:13:25;22.90;99.90
18733;DHT22;9495;51.210;2.934;2022-07-23T09:15:56;23.00;99.90
18733;DHT22;9495;51.210;2.934;2022-07-23T09:18:42;23.10;99.90
18733;DHT22;9495;51.210;2.934;2022-07-23T09:21:19;23.20;99.90
18733;DHT22;9495;51.210;2.934;2022-07-23T09:23:53;23.20;99.90
18733;DHT22;9495;51.210;2.934;2022-07-23T09:26:39;23.30;99.90
18733;DHT22;9495;51.210;2.934;2022-07-23T09:29:11;23.20;99.90
18733;DHT22;9495;51.210;2.934;2022-07-23T09:31:48;23.30;99.90
18733;DHT22;9495;51.210;2.934;2022-07-23T09:34:20;23.30;99.90
18733;DHT22;9495;51.210;2.934;2022-07-23T09:36:51;23.50;99.90
18733;DHT22;9495;51.210;2.934;2022-07-23T09:39:26;23.50;99.90
18733;DHT22;9495;51.210;2.934;2022-07-23T09:41:56;23.50;99.90
18733;DHT22;9495;51.210;2.934;2022-07-23T09:44:25;23.10;99.90
18733;DHT22;9495;51.210;2.934;2022-07-23T09:46:58;23.40;99.90
18733;DHT22;9495;51.210;2.934;2022-07-23T09:49:29;23.60;99.90
18733;DHT22;9495;51.210;2.934;2022-07-23T09:52:01;23.60;99.90
18733;DHT22;9495;51.210;2.934;2022-07-23T09:54:32;23.60;99.90
18733;DHT22;9495;51.210;2.934;2022-07-23T09:57:04;23.50;99.90
18733;DHT22;9495;51.210;2.934;2022-07-23T09:59:36;23.30;99.90
18733;DHT22;9495;51.210;2.934;2022-07-23T10:02:06;23.30;99.90
18733;DHT22;9495;51.210;2.934;2022-07-23T10:04:36;23.40;99.90
18733;DHT22;9495;51.210;2.934;2022-07-23T10:07:07;23.50;99.90
18733;DHT22;9495;51.210;2.934;2022-07-23T10:09:38;23.30;99.90
18733;DHT22;9495;51.210;2.934;2022-07-23T10:12:10;23.50;99.90
18733;DHT22;9495;51.210;2.934;2022-07-23T10:14:52;23.60;99.90
18733;DHT22;9495;51.210;2.934;2022-07-23T10:17:21;23.60;99.90
18733;DHT22;9495;51.210;2.934;2022-07-23T10:19:51;23.20;99.90
18733;DHT22;9495;51.210;2.934;2022-07-23T10:22:21;23.50;99.90
18733;DHT22;9495;51.210;2.934;2022-07-23T10:25:04;23.70;99.90
18733;DHT22;9495;51.210;2.934;2022-07-23T10:28:04;23.80;99.90
18733;DHT22;9495;51.210;2.934;2022-07-23T10:30:40;23.80;99.90
18733;DHT22;9495;51.210;2.934;2022-07-23T10:33:30;23.90;99.90
18733;DHT22;9495;51.210;2.934;2022-07-23T10:36:09;23.90;99.90
18733;DHT22;9495;51.210;2.934;2022-07-23T10:38:48;23.60;99.90
18733;DHT22;9495;51.210;2.934;2022-07-23T10:41:32;23.80;99.90
18733;DHT22;9495;51.210;2.934;2022-07-23T10:44:07;23.90;99.90
18733;DHT22;9495;51.210;2.934;2022-07-23T10:46:36;24.00;99.90
18733;DHT22;9495;51.210;2.934;2022-07-23T10:49:26;23.60;99.90
18733;DHT22;9495;51.210;2.934;2022-07-23T10:52:23;23.10;99.90
18733;DHT22;9495;51.210;2.934;2022-07-23T10:54:53;23.30;99.90
18733;DHT22;9495;51.210;2.934;2022-07-23T10:57:24;23.60;99.90
18733;DHT22;9495;51.210;2.934;2022-07-23T11:00:15;23.60;99.90
18733;DHT22;9495;51.210;2.934;2022-07-23T11:02:45;23.30;99.90
18733;DHT22;9495;51.210;2.934;2022-07-23T11:05:15;23.50;99.90
18733;DHT22;9495;51.210;2.934;2022-07-23T11:08:14;23.60;99.90
18733;DHT22;9495;51.210;2.934;2022-07-23T11:10:45;23.50;99.90
18733;DHT22;9495;51.210;2.934;2022-07-23T11:13:30;23.60;99.90
18733;DHT22;9495;51.210;2.934;2022-07-23T11:16:07;23.80;99.90
18733;DHT22;9495;51.210;2.934;2022-07-23T11:19:02;23.60;99.90
18733;DHT22;9495;51.210;2.934;2022-07-23T11:21:41;23.40;99.90
18733;DHT22;9495;51.210;2.934;2022-07-23T11:24:13;23.50;99.90
18733;DHT22;9495;51.210;2.934;2022-07-23T11:26:44;23.60;99.90
18733;DHT22;9495;51.210;2.934;2022-07-23T11:29:46;23.70;99.90
18733;DHT22;9495;51.210;2.934;2022-07-23T11:32:37;23.70;99.90
18733;DHT22;9495;51.210;2.934;2022-07-23T11:35:25;23.90;99.90
18733;DHT22;9495;51.210;2.934;2022-07-23T11:38:03;23.90;99.90
18733;DHT22;9495;51.210;2.934;2022-07-23T11:40:33;24.00;99.90
18733;DHT22;9495;51.210;2.934;2022-07-23T11:43:04;24.00;99.90
18733;DHT22;9495;51.210;2.934;2022-07-23T11:45:34;24.00;99.90
18733;DHT22;9495;51.210;2.934;2022-07-23T11:48:04;23.90;99.90
18733;DHT22;9495;51.210;2.934;2022-07-23T11:50:33;24.00;99.90
18733;DHT22;9495;51.210;2.934;2022-07-23T11:53:02;24.10;99.90
18733;DHT22;9495;51.210;2.934;2022-07-23T11:55:31;24.20;99.90
18733;DHT22;9495;51.210;2.934;2022-07-23T11:58:01;24.20;99.90
18733;DHT22;9495;51.210;2.934;2022-07-23T12:00:31;24.00;99.90
18733;DHT22;9495;51.210;2.934;2022-07-23T12:03:06;23.90;99.90
18733;DHT22;9495;51.210;2.934;2022-07-23T12:05:37;23.70;99.90
18733;DHT22;9495;51.210;2.934;2022-07-23T12:08:07;23.80;99.90
18733;DHT22;9495;51.210;2.934;2022-07-23T12:10:37;23.70;99.90
18733;DHT22;9495;51.210;2.934;2022-07-23T12:13:08;23.70;99.90
18733;DHT22;9495;51.210;2.934;2022-07-23T12:15:38;23.60;99.90
18733;DHT22;9495;51.210;2.934;2022-07-23T12:18:08;23.80;99.90
18733;DHT22;9495;51.210;2.934;2022-07-23T12:20:38;23.90;99.90
18733;DHT22;9495;51.210;2.934;2022-07-23T12:23:08;24.00;99.90
18733;DHT22;9495;51.210;2.934;2022-07-23T12:25:39;23.90;99.90
18733;DHT22;9495;51.210;2.934;2022-07-23T12:28:10;24.30;99.90
18733;DHT22;9495;51.210;2.934;2022-07-23T12:30:40;24.00;99.90
18733;DHT22;9495;51.210;2.934;2022-07-23T12:33:10;24.30;99.90
18733;DHT22;9495;51.210;2.934;2022-07-23T12:35:40;24.20;99.90
18733;DHT22;9495;51.210;2.934;2022-07-23T12:38:09;24.20;99.90
18733;DHT22;9495;51.210;2.934;2022-07-23T12:40:42;24.30;99.90
18733;DHT22;9495;51.210;2.934;2022-07-23T12:43:19;24.50;99.90
18733;DHT22;9495;51.210;2.934;2022-07-23T12:45:50;24.40;99.90
18733;DHT22;9495;51.210;2.934;2022-07-23T12:48:23;24.10;99.90
18733;DHT22;9495;51.210;2.934;2022-07-23T12:51:00;24.30;99.90
18733;DHT22;9495;51.210;2.934;2022-07-23T12:53:30;24.30;99.90
18733;DHT22;9495;51.210;2.934;2022-07-23T12:56:01;24.20;99.90
18733;DHT22;9495;51.210;2.934;2022-07-23T12:58:45;24.20;99.90
18733;DHT22;9495;51.210;2.934;2022-07-23T13:01:25;24.30;99.90
18733;DHT22;9495;51.210;2.934;2022-07-23T13:03:59;24.10;99.90
18733;DHT22;9495;51.210;2.934;2022-07-23T13:06:28;24.40;99.90
18733;DHT22;9495;51.210;2.934;2022-07-23T13:08:57;24.50;99.90
18733;DHT22;9495;51.210;2.934;2022-07-23T13:11:28;24.50;99.90
18733;DHT22;9495;51.210;2.934;2022-07-23T13:13:58;24.50;99.90
18733;DHT22;9495;51.210;2.934;2022-07-23T13:16:28;24.60;99.90
18733;DHT22;9495;51.210;2.934;2022-07-23T13:18:57;24.60;99.90
18733;DHT22;9495;51.210;2.934;2022-07-23T13:21:26;24.30;99.90
18733;DHT22;9495;51.210;2.934;2022-07-23T13:23:55;24.50;99.90
18733;DHT22;9495;51.210;2.934;2022-07-23T13:26:24;24.70;99.90
18733;DHT22;9495;51.210;2.934;2022-07-23T13:28:53;24.60;99.90
18733;DHT22;9495;51.210;2.934;2022-07-23T13:31:23;24.80;99.90
18733;DHT22;9495;51.210;2.934;2022-07-23T13:33:51;24.50;99.90
18733;DHT22;9495;51.210;2.934;2022-07-23T13:36:20;24.60;99.90
18733;DHT22;9495;51.210;2.934;2022-07-23T13:38:48;24.50;99.90
18733;DHT22;9495;51.210;2.934;2022-07-23T13:41:17;24.60;99.90
18733;DHT22;9495;51.210;2.934;2022-07-23T13:43:46;24.50;99.90
18733;DHT22;9495;51.210;2.934;2022-07-23T13:46:14;24.40;99.90
18733;DHT22;9495;51.210;2.934;2022-07-23T13:48:48;24.30;99.90
18733;DHT22;9495;51.210;2.934;2022-07-23T13:51:16;24.40;99.90
18733;DHT22;9495;51.210;2.934;2022-07-23T13:53:46;24.40;99.90
18733;DHT22;9495;51.210;2.934;2022-07-23T13:56:16;24.50;99.90
18733;DHT22;9495;51.210;2.934;2022-07-23T13:58:45;24.60;99.90
18733;DHT22;9495;51.210;2.934;2022-07-23T14:01:14;24.40;99.90
18733;DHT22;9495;51.210;2.934;2022-07-23T14:03:49;24.60;99.90
18733;DHT22;9495;51.210;2.934;2022-07-23T14:06:19;24.40;99.90
18733;DHT22;9495;51.210;2.934;2022-07-23T14:08:59;24.50;99.90
18733;DHT22;9495;51.210;2.934;2022-07-23T14:11:28;24.50;99.90
18733;DHT22;9495;51.210;2.934;2022-07-23T14:13:57;24.30;99.90
18733;DHT22;9495;51.210;2.934;2022-07-23T14:16:27;24.30;99.90
18733;DHT22;9495;51.210;2.934;2022-07-23T14:18:58;24.60;99.90
18733;DHT22;9495;51.210;2.934;2022-07-23T14:21:27;24.60;99.90
18733;DHT22;9495;51.210;2.934;2022-07-23T14:23:56;24.60;99.90
18733;DHT22;9495;51.210;2.934;2022-07-23T14:26:24;24.70;99.90
18733;DHT22;9495;51.210;2.934;2022-07-23T14:28:53;24.60;99.90
18733;DHT22;9495;51.210;2.934;2022-07-23T14:31:21;24.80;99.90
18733;DHT22;9495;51.210;2.934;2022-07-23T14:33:50;24.80;99.90
18733;DHT22;9495;51.210;2.934;2022-07-23T14:36:21;24.80;99.90
18733;DHT22;9495;51.210;2.934;2022-07-23T14:38:50;24.60;99.90
18733;DHT22;9495;51.210;2.934;2022-07-23T14:41:18;24.50;99.90
18733;DHT22;9495;51.210;2.934;2022-07-23T14:43:53;24.40;99.90
18733;DHT22;9495;51.210;2.934;2022-07-23T14:46:22;24.30;99.90
18733;DHT22;9495;51.210;2.934;2022-07-23T14:48:50;24.30;99.90
18733;DHT22;9495;51.210;2.934;2022-07-23T14:51:18;24.60;99.90
18733;DHT22;9495;51.210;2.934;2022-07-23T14:53:48;24.60;99.90
18733;DHT22;9495;51.210;2.934;2022-07-23T14:56:17;24.70;99.90
18733;DHT22;9495;51.210;2.934;2022-07-23T14:58:45;24.80;99.90
18733;DHT22;9495;51.210;2.934;2022-07-23T15:01:14;24.90;99.90
18733;DHT22;9495;51.210;2.934;2022-07-23T15:03:43;24.90;99.90
18733;DHT22;9495;51.210;2.934;2022-07-23T15:06:11;24.90;99.90
18733;DHT22;9495;51.210;2.934;2022-07-23T15:08:40;25.00;99.90
18733;DHT22;9495;51.210;2.934;2022-07-23T15:11:10;25.10;99.90
18733;DHT22;9495;51.210;2.934;2022-07-23T15:13:39;24.90;99.90
18733;DHT22;9495;51.210;2.934;2022-07-23T15:16:08;24.90;99.90
18733;DHT22;9495;51.210;2.934;2022-07-23T15:18:37;24.90;99.90
18733;DHT22;9495;51.210;2.934;2022-07-23T15:21:05;24.80;99.90
18733;DHT22;9495;51.210;2.934;2022-07-23T15:23:34;25.00;99.90
18733;DHT22;9495;51.210;2.934;2022-07-23T15:26:07;25.00;99.90
18733;DHT22;9495;51.210;2.934;2022-07-23T15:28:37;25.00;99.90
18733;DHT22;9495;51.210;2.934;2022-07-23T15:31:05;25.00;99.90
18733;DHT22;9495;51.210;2.934;2022-07-23T15:33:53;25.00;99.90
18733;DHT22;9495;51.210;2.934;2022-07-23T15:36:22;25.20;99.90
18733;DHT22;9495;51.210;2.934;2022-07-23T15:38:51;24.90;99.90
18733;DHT22;9495;51.210;2.934;2022-07-23T15:41:19;24.90;99.90
18733;DHT22;9495;51.210;2.934;2022-07-23T15:43:51;24.70;99.90
18733;DHT22;9495;51.210;2.934;2022-07-23T15:46:22;24.80;99.90
18733;DHT22;9495;51.210;2.934;2022-07-23T15:48:53;24.90;99.90
18733;DHT22;9495;51.210;2.934;2022-07-23T15:51:22;24.90;99.90
18733;DHT22;9495;51.210;2.934;2022-07-23T15:53:51;25.00;99.90
18733;DHT22;9495;51.210;2.934;2022-07-23T15:56:21;24.90;99.90
18733;DHT22;9495;51.210;2.934;2022-07-23T15:58:50;24.80;99.90
18733;DHT22;9495;51.210;2.934;2022-07-23T16:01:19;24.80;99.90
18733;DHT22;9495;51.210;2.934;2022-07-23T16:03:47;25.00;99.90
18733;DHT22;9495;51.210;2.934;2022-07-23T16:06:16;25.00;99.90
18733;DHT22;9495;51.210;2.934;2022-07-23T16:08:45;25.20;99.90